sensor_id;sensor_type;location;lat;lon;timestamp;P1;durP1;ratioP1;P2;durP2;ratioP2
21251;SDS011;10784;50.578;17.878;2023-03-30T00:01:58;9.30;;;2.28;;
21251;SDS011;10784;50.578;17.878;2023-03-30T00:04:31;5.20;;;2.65;;
21251;SDS011;10784;50.578;17.878;2023-03-30T00:07:06;6.40;;;2.80;;
21251;SDS011;10784;50.578;17.878;2023-03-30T00:09:39;4.38;;;2.13;;
21251;SDS011;10784;50.578;17.878;2023-03-30T00:12:15;4.43;;;2.85;;
21251;SDS011;10784;50.578;17.878;2023-03-30T00:14:51;5.18;;;2.50;;
21251;SDS011;10784;50.578;17.878;2023-03-30T00:17:24;10.48;;;3.22;;
21251;SDS011;10784;50.578;17.878;2023-03-30T00:19:58;6.65;;;3.15;;
21251;SDS011;10784;50.578;17.878;2023-03-30T00:22:33;4.80;;;2.40;;
21251;SDS011;10784;50.578;17.878;2023-03-30T00:25:07;4.95;;;2.60;;
21251;SDS011;10784;50.578;17.878;2023-03-30T00:27:40;7.05;;;2.78;;
21251;SDS011;10784;50.578;17.878;2023-03-30T00:30:15;6.93;;;2.83;;
21251;SDS011;10784;50.578;17.878;2023-03-30T00:32:49;4.45;;;2.60;;
21251;SDS011;10784;50.578;17.878;2023-03-30T00:35:21;10.75;;;4.35;;
21251;SDS011;10784;50.578;17.878;2023-03-30T00:37:56;9.40;;;2.88;;
21251;SDS011;10784;50.578;17.878;2023-03-30T00:40:29;3.20;;;2.30;;
21251;SDS011;10784;50.578;17.878;2023-03-30T00:43:04;8.65;;;2.72;;
21251;SDS011;10784;50.578;17.878;2023-03-30T00:45:38;3.22;;;2.22;;
21251;SDS011;10784;50.578;17.878;2023-03-30T00:50:54;4.97;;;2.92;;
21251;SDS011;10784;50.578;17.878;2023-03-30T00:53:29;8.25;;;3.83;;
21251;SDS011;10784;50.578;17.878;2023-03-30T00:56:03;6.63;;;3.38;;
21251;SDS011;10784;50.578;17.878;2023-03-30T00:58:39;6.13;;;2.42;;
21251;SDS011;10784;50.578;17.878;2023-03-30T01:01:14;3.83;;;1.95;;
21251;SDS011;10784;50.578;17.878;2023-03-30T01:03:47;7.10;;;2.97;;
21251;SDS011;10784;50.578;17.878;2023-03-30T01:06:22;4.00;;;2.90;;
21251;SDS011;10784;50.578;17.878;2023-03-30T01:08:56;7.40;;;3.53;;
21251;SDS011;10784;50.578;17.878;2023-03-30T01:11:29;6.22;;;2.75;;
21251;SDS011;10784;50.578;17.878;2023-03-30T01:14:03;7.38;;;3.05;;
21251;SDS011;10784;50.578;17.878;2023-03-30T01:38:54;6.78;;;2.75;;
21251;SDS011;10784;50.578;17.878;2023-03-30T01:46:44;4.47;;;3.20;;
21251;SDS011;10784;50.578;17.878;2023-03-30T01:49:29;5.75;;;3.33;;
21251;SDS011;10784;50.578;17.878;2023-03-30T01:52:07;3.50;;;2.45;;
21251;SDS011;10784;50.578;17.878;2023-03-30T01:54:47;6.28;;;3.22;;
21251;SDS011;10784;50.578;17.878;2023-03-30T01:57:46;6.40;;;2.80;;
21251;SDS011;10784;50.578;17.878;2023-03-30T02:00:16;7.07;;;3.20;;
21251;SDS011;10784;50.578;17.878;2023-03-30T02:02:59;5.75;;;2.95;;
21251;SDS011;10784;50.578;17.878;2023-03-30T02:05:34;7.20;;;2.90;;
21251;SDS011;10784;50.578;17.878;2023-03-30T02:08:09;5.43;;;3.38;;
21251;SDS011;10784;50.578;17.878;2023-03-30T02:10:43;6.10;;;2.95;;
21251;SDS011;10784;50.578;17.878;2023-03-30T02:13:16;3.20;;;2.33;;
21251;SDS011;10784;50.578;17.878;2023-03-30T02:15:55;5.20;;;3.22;;
21251;SDS011;10784;50.578;17.878;2023-03-30T02:18:30;5.70;;;2.72;;
21251;SDS011;10784;50.578;17.878;2023-03-30T02:21:03;8.23;;;3.42;;
21251;SDS011;10784;50.578;17.878;2023-03-30T02:23:38;4.47;;;2.58;;
21251;SDS011;10784;50.578;17.878;2023-03-30T02:26:13;6.50;;;3.38;;
21251;SDS011;10784;50.578;17.878;2023-03-30T02:28:49;5.30;;;3.08;;
21251;SDS011;10784;50.578;17.878;2023-03-30T02:31:21;5.18;;;3.20;;
21251;SDS011;10784;50.578;17.878;2023-03-30T02:34:02;7.35;;;2.88;;
21251;SDS011;10784;50.578;17.878;2023-03-30T02:44:41;15.48;;;5.78;;
21251;SDS011;10784;50.578;17.878;2023-03-30T02:47:19;41.35;;;11.52;;
21251;SDS011;10784;50.578;17.878;2023-03-30T02:49:56;64.50;;;18.20;;
21251;SDS011;10784;50.578;17.878;2023-03-30T02:52:42;47.25;;;16.75;;
21251;SDS011;10784;50.578;17.878;2023-03-30T02:55:28;100.38;;;28.63;;
21251;SDS011;10784;50.578;17.878;2023-03-30T02:58:37;37.63;;;13.45;;
21251;SDS011;10784;50.578;17.878;2023-03-30T03:01:38;32.22;;;9.40;;
21251;SDS011;10784;50.578;17.878;2023-03-30T03:04:16;77.45;;;20.67;;
21251;SDS011;10784;50.578;17.878;2023-03-30T03:07:11;96.93;;;23.98;;
21251;SDS011;10784;50.578;17.878;2023-03-30T03:09:45;67.38;;;17.25;;
21251;SDS011;10784;50.578;17.878;2023-03-30T03:12:19;75.07;;;18.60;;
21251;SDS011;10784;50.578;17.878;2023-03-30T03:14:52;61.15;;;15.55;;
21251;SDS011;10784;50.578;17.878;2023-03-30T03:17:26;68.65;;;15.68;;
21251;SDS011;10784;50.578;17.878;2023-03-30T03:20:08;38.05;;;12.00;;
21251;SDS011;10784;50.578;17.878;2023-03-30T03:22:42;57.25;;;13.63;;
21251;SDS011;10784;50.578;17.878;2023-03-30T03:25:15;27.73;;;9.07;;
21251;SDS011;10784;50.578;17.878;2023-03-30T03:27:59;27.25;;;9.18;;
21251;SDS011;10784;50.578;17.878;2023-03-30T03:30:39;21.73;;;7.78;;
21251;SDS011;10784;50.578;17.878;2023-03-30T03:33:17;15.73;;;4.82;;
21251;SDS011;10784;50.578;17.878;2023-03-30T03:36:21;6.20;;;3.25;;
21251;SDS011;10784;50.578;17.878;2023-03-30T03:38:57;8.60;;;3.92;;
21251;SDS011;10784;50.578;17.878;2023-03-30T03:41:31;9.25;;;4.13;;
21251;SDS011;10784;50.578;17.878;2023-03-30T03:44:04;6.00;;;3.05;;
21251;SDS011;10784;50.578;17.878;2023-03-30T03:46:37;6.82;;;2.85;;
21251;SDS011;10784;50.578;17.878;2023-03-30T03:49:10;4.53;;;3.08;;
